createdAt,value
2022-08-24T00:00:41.445Z,9.00
2022-08-24T00:03:12.058Z,9.00
2022-08-24T00:05:40.509Z,8.75
2022-08-24T00:08:08.868Z,6.50
2022-08-24T00:10:36.755Z,10.75
2022-08-24T00:13:04.764Z,11.50
2022-08-24T00:15:34.089Z,10.25
2022-08-24T00:18:02.190Z,9.50
2022-08-24T00:20:30.268Z,9.00
2022-08-24T00:22:59.207Z,9.00
2022-08-24T00:25:27.619Z,10.25
2022-08-24T00:27:55.571Z,8.50
2022-08-24T00:30:23.426Z,8.75
2022-08-24T00:32:53.838Z,6.00
2022-08-24T00:35:22.099Z,8.75
2022-08-24T00:37:50.255Z,13.25
2022-08-24T00:40:26.832Z,11.25
2022-08-24T00:42:55.291Z,12.50
2022-08-24T00:45:24.670Z,15.00
2022-08-24T00:47:57.237Z,17.25
2022-08-24T00:50:27.002Z,22.50
2022-08-24T00:52:58.039Z,16.25
2022-08-24T00:55:30.898Z,15.00
2022-08-24T00:58:00.509Z,16.00
2022-08-24T01:00:31.612Z,16.00
2022-08-24T01:03:04.452Z,12.50
2022-08-24T01:05:32.692Z,11.50
2022-08-24T01:08:01.078Z,12.25
2022-08-24T01:10:30.365Z,14.50
2022-08-24T01:13:01.381Z,13.50
2022-08-24T01:15:29.794Z,15.75
2022-08-24T01:18:15.477Z,14.50
2022-08-24T01:20:45.864Z,11.00
2022-08-24T01:23:15.894Z,14.00
2022-08-24T01:25:45.695Z,16.25
2022-08-24T01:28:16.738Z,16.25
2022-08-24T01:30:49.770Z,14.50
2022-08-24T01:33:24.097Z,12.75
2022-08-24T01:35:52.048Z,15.50
2022-08-24T01:38:20.016Z,15.00
2022-08-24T01:40:53.543Z,12.00
2022-08-24T01:43:22.639Z,14.75
2022-08-24T01:45:51.034Z,14.25
2022-08-24T01:48:22.935Z,15.75
2022-08-24T01:50:52.745Z,16.25
2022-08-24T01:53:20.980Z,15.50
2022-08-24T01:55:50.289Z,16.50
2022-08-24T01:58:18.623Z,15.00
2022-08-24T02:00:46.513Z,15.00
2022-08-24T02:03:14.494Z,14.00
2022-08-24T02:05:42.569Z,11.75
2022-08-24T02:08:10.549Z,14.75
2022-08-24T02:10:38.566Z,14.00
2022-08-24T02:13:07.889Z,12.00
2022-08-24T02:15:40.341Z,13.25
2022-08-24T02:18:15.410Z,14.25
2022-08-24T02:20:43.740Z,14.00
2022-08-24T02:23:11.728Z,12.00
2022-08-24T02:25:39.687Z,13.25
2022-08-24T02:28:09.453Z,12.25
2022-08-24T02:30:37.318Z,12.50
2022-08-24T02:33:05.390Z,12.25
2022-08-24T02:35:33.343Z,15.50
2022-08-24T02:38:01.382Z,11.00
2022-08-24T02:40:29.405Z,11.50
2022-08-24T02:42:57.486Z,11.75
2022-08-24T02:45:26.745Z,13.00
2022-08-24T02:47:54.923Z,12.50
2022-08-24T02:50:23.685Z,9.50
2022-08-24T02:52:51.620Z,9.50
2022-08-24T02:55:20.342Z,11.00
2022-08-24T02:57:49.004Z,9.00
2022-08-24T03:00:19.318Z,8.25
2022-08-24T03:02:48.662Z,10.75
2022-08-24T03:05:17.278Z,15.00
2022-08-24T03:07:45.188Z,9.50
2022-08-24T03:10:13.158Z,12.00
2022-08-24T03:12:41.283Z,11.50
2022-08-24T03:15:10.822Z,12.25
2022-08-24T03:17:39.900Z,11.00
2022-08-24T03:20:12.460Z,14.25
2022-08-24T03:22:40.550Z,12.00
2022-08-24T03:25:09.161Z,11.25
2022-08-24T03:27:37.799Z,8.50
2022-08-24T03:30:06.378Z,11.00
2022-08-24T03:32:35.478Z,10.50
2022-08-24T03:35:04.490Z,9.50
2022-08-24T03:37:33.935Z,9.00
2022-08-24T03:40:01.946Z,8.00
2022-08-24T03:42:29.877Z,10.25
2022-08-24T03:44:59.230Z,10.00
2022-08-24T03:47:27.285Z,14.25
2022-08-24T03:49:56.405Z,10.50
2022-08-24T03:52:24.718Z,11.75
2022-08-24T03:54:55.245Z,8.25
2022-08-24T03:57:23.234Z,12.75
2022-08-24T03:59:51.286Z,10.00
2022-08-24T04:02:19.196Z,12.25
2022-08-24T04:04:47.481Z,9.00
2022-08-24T04:07:15.380Z,7.25
2022-08-24T04:09:43.333Z,9.00
2022-08-24T04:12:12.570Z,9.00
2022-08-24T04:14:40.749Z,9.00
2022-08-24T04:17:08.774Z,14.00
2022-08-24T04:19:36.679Z,9.00
2022-08-24T04:22:04.656Z,9.00
2022-08-24T04:24:32.687Z,12.25
2022-08-24T04:27:00.614Z,11.25
2022-08-24T04:29:29.878Z,11.00
2022-08-24T04:31:59.025Z,11.75
2022-08-24T04:34:27.180Z,11.50
2022-08-24T04:36:55.307Z,9.00
2022-08-24T04:39:23.575Z,10.50
2022-08-24T04:41:51.714Z,11.75
2022-08-24T04:44:20.175Z,10.00
2022-08-24T04:46:49.485Z,10.00
2022-08-24T04:49:17.369Z,11.50
2022-08-24T04:51:45.240Z,12.50
2022-08-24T04:54:13.213Z,15.25
2022-08-24T04:56:41.166Z,13.50
2022-08-24T04:59:09.196Z,11.00
2022-08-24T05:01:37.180Z,12.25
2022-08-24T05:04:06.644Z,12.00
2022-08-24T05:06:34.860Z,11.75
2022-08-24T05:09:03.636Z,7.00
2022-08-24T05:11:31.652Z,12.00
2022-08-24T05:14:00.113Z,11.00
2022-08-24T05:16:28.840Z,12.50
2022-08-24T05:19:03.122Z,9.50
2022-08-24T05:21:32.366Z,15.00
2022-08-24T05:24:00.294Z,11.00
2022-08-24T05:26:29.098Z,13.00
2022-08-24T05:28:57.312Z,8.75
2022-08-24T05:31:27.738Z,12.00
2022-08-24T05:33:55.753Z,8.75
2022-08-24T05:36:25.543Z,12.00
2022-08-24T05:38:55.815Z,11.00
2022-08-24T05:41:24.453Z,7.75
2022-08-24T05:43:52.590Z,10.25
2022-08-24T05:46:20.779Z,11.25
2022-08-24T05:48:52.486Z,11.00
2022-08-24T05:51:20.878Z,9.00
2022-08-24T05:53:48.820Z,12.50
2022-08-24T05:56:18.835Z,14.00
2022-08-24T05:58:46.942Z,6.50
2022-08-24T06:01:15.941Z,10.25
2022-08-24T06:03:45.859Z,9.00
2022-08-24T06:06:14.024Z,9.00
2022-08-24T06:08:44.430Z,11.00
2022-08-24T06:11:12.423Z,11.75
2022-08-24T06:13:41.731Z,6.00
2022-08-24T06:16:21.226Z,9.50
2022-08-24T06:18:50.800Z,10.75
2022-08-24T06:21:19.722Z,10.25
2022-08-24T06:23:48.891Z,12.00
2022-08-24T06:26:34.058Z,8.00
2022-08-24T06:29:03.551Z,9.25
2022-08-24T06:31:39.331Z,8.25
2022-08-24T06:34:07.802Z,12.00
2022-08-24T06:36:35.726Z,12.50
2022-08-24T06:39:03.663Z,9.25
2022-08-24T06:41:34.295Z,8.50
2022-08-24T06:44:04.377Z,10.00
2022-08-24T06:46:33.618Z,6.00
2022-08-24T06:49:01.583Z,10.75
2022-08-24T06:51:29.613Z,12.00
2022-08-24T06:53:57.634Z,13.00
2022-08-24T06:56:26.051Z,10.00
2022-08-24T06:58:55.563Z,13.00
2022-08-24T07:01:25.676Z,11.75
2022-08-24T07:03:53.850Z,8.00
2022-08-24T07:06:22.253Z,10.50
2022-08-24T07:08:50.203Z,11.25
2022-08-24T07:11:18.807Z,10.00
2022-08-24T07:13:47.536Z,12.00
2022-08-24T07:16:15.848Z,10.00
2022-08-24T07:18:49.351Z,14.25
2022-08-24T07:21:19.705Z,10.00
2022-08-24T07:23:48.182Z,11.00
2022-08-24T07:26:21.906Z,10.50
2022-08-24T07:28:50.443Z,10.00
2022-08-24T07:31:21.250Z,9.25
2022-08-24T07:33:50.745Z,8.50
2022-08-24T07:36:22.473Z,11.00
2022-08-24T07:38:52.409Z,13.25
2022-08-24T07:41:40.380Z,9.00
2022-08-24T07:44:09.159Z,12.25
2022-08-24T07:46:37.766Z,12.25
2022-08-24T07:49:12.639Z,10.00
2022-08-24T07:51:48.607Z,10.00
2022-08-24T07:54:17.283Z,15.50
2022-08-24T07:56:45.161Z,11.50
2022-08-24T07:59:13.722Z,10.25
2022-08-24T08:01:42.301Z,11.75
2022-08-24T08:04:11.639Z,12.00
2022-08-24T08:06:39.629Z,10.00
2022-08-24T08:09:07.572Z,11.50
2022-08-24T08:11:35.573Z,14.25
2022-08-24T08:14:03.544Z,11.25
2022-08-24T08:16:31.586Z,10.50
2022-08-24T08:19:15.046Z,12.25
2022-08-24T08:22:01.834Z,10.75
2022-08-24T08:24:30.268Z,11.75
2022-08-24T08:26:59.375Z,11.50
2022-08-24T08:29:27.827Z,12.25
2022-08-24T08:31:56.037Z,13.00
2022-08-24T08:34:24.541Z,11.60
2022-08-24T08:36:54.313Z,11.75
2022-08-24T08:39:22.849Z,12.50
2022-08-24T08:42:23.168Z,13.75
2022-08-24T08:45:12.293Z,16.25
2022-08-24T08:48:21.720Z,12.20
2022-08-24T08:51:23.599Z,11.00
2022-08-24T08:54:12.783Z,12.20
2022-08-24T08:56:45.639Z,11.00
2022-08-24T08:59:18.032Z,13.40
2022-08-24T09:01:48.988Z,12.00
2022-08-24T09:04:39.686Z,10.00
2022-08-24T09:07:17.300Z,12.40
2022-08-24T09:10:24.008Z,13.40
2022-08-24T09:13:02.932Z,13.60
2022-08-24T09:15:40.306Z,12.00
2022-08-24T09:18:15.639Z,12.00
2022-08-24T09:20:57.455Z,13.40
2022-08-24T09:23:30.498Z,10.60
2022-08-24T09:26:03.236Z,11.00
2022-08-24T09:28:41.377Z,14.20
2022-08-24T09:34:11.263Z,11.20
2022-08-24T09:36:52.753Z,12.80
2022-08-24T09:39:37.523Z,14.20
2022-08-24T09:42:27.586Z,12.20
2022-08-24T09:45:14.287Z,11.20
2022-08-24T09:48:03.685Z,11.60
2022-08-24T09:50:44.419Z,13.20
2022-08-24T09:53:53.717Z,9.80
2022-08-24T09:57:09.337Z,9.40
2022-08-24T10:00:08.502Z,13.80
2022-08-24T10:02:48.141Z,11.80
2022-08-24T10:05:25.109Z,13.00
2022-08-24T10:07:57.457Z,12.20
2022-08-24T10:10:31.806Z,13.40
2022-08-24T10:13:05.519Z,12.20
2022-08-24T10:15:37.557Z,6.20
2022-08-24T10:18:18.192Z,8.00
2022-08-24T10:21:13.963Z,6.00
2022-08-24T10:24:08.849Z,6.40
2022-08-24T10:26:41.696Z,8.40
2022-08-24T10:29:34.245Z,9.00
2022-08-24T10:32:19.805Z,9.40
2022-08-24T10:34:55.769Z,9.00
2022-08-24T10:38:37.000Z,6.00
2022-08-24T10:41:34.166Z,9.00
2022-08-24T10:44:36.051Z,6.20
2022-08-24T10:47:09.969Z,4.60
2022-08-24T10:50:13.452Z,4.00
2022-08-24T10:53:03.190Z,5.00
2022-08-24T10:55:36.243Z,5.60
2022-08-24T10:58:49.868Z,4.00
2022-08-24T11:01:28.770Z,5.00
2022-08-24T11:04:01.496Z,5.40
2022-08-24T11:06:32.014Z,6.20
2022-08-24T11:09:06.219Z,4.00
2022-08-24T11:11:40.693Z,8.00
2022-08-24T11:14:10.870Z,6.00
2022-08-24T11:16:42.047Z,7.60
2022-08-24T11:19:14.792Z,6.00
2022-08-24T11:21:46.246Z,7.40
2022-08-24T11:24:30.474Z,7.40
2022-08-24T11:27:02.205Z,7.00
2022-08-24T11:29:31.914Z,6.40
2022-08-24T11:32:08.101Z,7.40
2022-08-24T11:34:40.378Z,8.20
2022-08-24T11:37:12.160Z,6.00
2022-08-24T11:39:50.669Z,6.20
2022-08-24T11:42:44.026Z,6.60
2022-08-24T11:45:15.575Z,6.20
2022-08-24T11:47:50.357Z,9.20
2022-08-24T11:50:27.116Z,6.40
2022-08-24T11:53:00.910Z,7.00
2022-08-24T11:55:45.347Z,6.00
2022-08-24T11:58:31.863Z,6.60
2022-08-24T12:01:01.962Z,7.40
2022-08-24T12:03:40.357Z,7.00
2022-08-24T12:06:15.199Z,5.80
2022-08-24T12:08:46.012Z,6.20
2022-08-24T12:11:23.630Z,5.60
2022-08-24T12:13:56.004Z,6.00
2022-08-24T12:16:26.616Z,6.80
2022-08-24T12:18:57.001Z,7.60
2022-08-24T12:21:28.080Z,6.60
2022-08-24T12:23:59.157Z,10.40
2022-08-24T12:26:29.593Z,6.00
2022-08-24T12:29:04.179Z,7.20
2022-08-24T12:31:39.254Z,8.00
2022-08-24T12:34:10.233Z,8.00
2022-08-24T12:36:43.358Z,5.00
2022-08-24T12:39:13.546Z,5.00
2022-08-24T12:41:47.826Z,6.60
2022-08-24T12:44:17.587Z,7.60
2022-08-24T12:46:47.827Z,6.20
2022-08-24T12:49:19.651Z,9.20
2022-08-24T12:52:00.522Z,8.40
2022-08-24T12:54:42.945Z,3.60
2022-08-24T12:57:25.412Z,7.20
2022-08-24T12:59:54.298Z,7.00
2022-08-24T13:02:32.461Z,5.20
2022-08-24T13:05:01.824Z,5.00
2022-08-24T13:07:32.347Z,7.80
2022-08-24T13:10:10.470Z,6.00
2022-08-24T13:12:57.206Z,7.00
2022-08-24T13:15:54.312Z,8.20
2022-08-24T13:18:50.881Z,9.00
2022-08-24T13:21:39.867Z,7.80
2022-08-24T13:24:51.404Z,7.00
2022-08-24T13:27:49.012Z,7.00
2022-08-24T13:30:24.153Z,7.00
2022-08-24T13:32:59.002Z,8.80
2022-08-24T13:35:36.828Z,8.00
2022-08-24T13:38:29.414Z,9.00
2022-08-24T13:41:05.375Z,7.60
2022-08-24T13:43:36.820Z,9.00
2022-08-24T13:46:17.893Z,8.00
2022-08-24T13:48:51.938Z,6.80
2022-08-24T13:51:51.462Z,8.00
2022-08-24T13:54:26.134Z,8.40
2022-08-24T13:57:06.383Z,9.20
2022-08-24T13:59:54.613Z,8.60
2022-08-24T14:02:31.308Z,10.20
2022-08-24T14:05:03.422Z,10.40
2022-08-24T14:07:32.768Z,8.20
2022-08-24T14:10:07.733Z,8.60
2022-08-24T14:12:56.374Z,7.20
2022-08-24T14:15:27.989Z,6.00
2022-08-24T14:18:14.866Z,8.20
2022-08-24T14:20:56.605Z,7.60
2022-08-24T14:23:36.665Z,6.80
2022-08-24T14:26:42.131Z,7.60
2022-08-24T14:29:40.590Z,7.00
2022-08-24T14:32:44.630Z,8.00
2022-08-24T14:35:40.969Z,10.00
2022-08-24T14:38:27.544Z,6.80
2022-08-24T14:41:20.773Z,6.00
2022-08-24T14:44:07.401Z,9.00
2022-08-24T14:46:39.507Z,8.60
2022-08-24T14:49:17.754Z,8.20
2022-08-24T14:51:54.650Z,8.40
2022-08-24T14:54:27.538Z,5.80
2022-08-24T14:57:05.165Z,8.00
2022-08-24T14:59:42.109Z,8.00
2022-08-24T15:02:38.962Z,9.20
2022-08-24T15:05:14.251Z,11.20
2022-08-24T15:07:42.282Z,9.80
2022-08-24T15:10:14.828Z,10.00
2022-08-24T15:12:44.826Z,8.60
2022-08-24T15:15:15.371Z,9.60
2022-08-24T15:17:50.265Z,9.80
2022-08-24T15:20:21.514Z,10.80
2022-08-24T15:22:53.313Z,6.40
2022-08-24T15:25:29.996Z,10.80
2022-08-24T15:28:08.690Z,9.20
2022-08-24T15:30:38.067Z,10.40
2022-08-24T15:33:09.691Z,14.00
2022-08-24T15:35:40.762Z,10.60
2022-08-24T15:38:19.421Z,10.00
2022-08-24T15:40:47.474Z,8.40
2022-08-24T15:43:15.450Z,11.00
2022-08-24T15:45:45.900Z,13.60
2022-08-24T15:48:13.892Z,13.00
2022-08-24T15:50:44.175Z,15.80
2022-08-24T15:53:29.478Z,12.20
2022-08-24T15:55:59.623Z,10.00
2022-08-24T15:58:33.205Z,10.80
2022-08-24T16:01:36.587Z,11.60
2022-08-24T16:04:05.580Z,8.40
2022-08-24T16:06:42.454Z,9.00
2022-08-24T16:09:14.733Z,11.00
2022-08-24T16:11:45.697Z,10.20
2022-08-24T16:14:15.322Z,9.00
2022-08-24T16:16:45.778Z,10.40
2022-08-24T16:19:24.336Z,10.40
2022-08-24T16:21:56.102Z,10.40
2022-08-24T16:24:29.999Z,10.20
2022-08-24T16:27:05.173Z,11.20
2022-08-24T16:29:55.757Z,12.40
2022-08-24T16:32:33.711Z,12.00
2022-08-24T16:35:17.517Z,11.60
2022-08-24T16:37:46.832Z,12.20
2022-08-24T16:40:14.763Z,13.80
2022-08-24T16:42:43.424Z,10.40
2022-08-24T16:45:12.474Z,10.40
2022-08-24T16:47:40.685Z,12.60
2022-08-24T16:50:09.251Z,13.20
2022-08-24T16:52:37.111Z,12.40
2022-08-24T16:55:07.473Z,12.40
2022-08-24T16:57:37.578Z,14.00
2022-08-24T17:00:07.804Z,12.20
2022-08-24T17:02:38.124Z,12.80
2022-08-24T17:05:07.227Z,14.00
2022-08-24T17:07:35.192Z,10.20
2022-08-24T17:10:04.361Z,11.80
2022-08-24T17:12:36.170Z,14.00
2022-08-24T17:15:04.807Z,12.60
2022-08-24T17:17:33.150Z,12.80
2022-08-24T17:20:01.121Z,11.00
2022-08-24T17:22:31.300Z,12.00
2022-08-24T17:24:59.643Z,11.80
2022-08-24T17:27:30.106Z,12.20
2022-08-24T17:29:59.607Z,9.20
2022-08-24T17:32:28.000Z,13.00
2022-08-24T17:34:55.937Z,11.60
2022-08-24T17:37:23.980Z,12.60
2022-08-24T17:39:53.005Z,13.00
2022-08-24T17:42:49.072Z,13.00
2022-08-24T17:45:13.083Z,9.40
2022-08-24T17:47:41.578Z,12.00
2022-08-24T17:50:10.360Z,10.80
2022-08-24T17:52:38.281Z,15.20
2022-08-24T17:55:09.665Z,12.00
2022-08-24T17:57:37.574Z,12.40
2022-08-24T18:00:08.097Z,11.20
2022-08-24T18:02:37.376Z,13.00
2022-08-24T18:05:05.686Z,14.00
2022-08-24T18:07:49.983Z,11.40
2022-08-24T18:10:23.855Z,11.40
2022-08-24T18:12:51.835Z,12.00
2022-08-24T18:15:19.801Z,14.60
2022-08-24T18:17:51.556Z,12.60
2022-08-24T18:20:23.578Z,11.20
2022-08-24T18:22:52.780Z,13.40
2022-08-24T18:25:22.972Z,11.40
2022-08-24T18:27:52.097Z,14.60
2022-08-24T18:30:22.629Z,12.20
2022-08-24T18:32:54.630Z,10.40
2022-08-24T18:35:24.438Z,12.40
2022-08-24T18:37:52.404Z,13.00
2022-08-24T18:40:21.524Z,12.20
2022-08-24T18:42:50.894Z,11.20
2022-08-24T18:45:18.925Z,10.60
2022-08-24T18:47:53.321Z,11.80
2022-08-24T18:50:24.174Z,10.60
2022-08-24T18:52:52.306Z,9.80
2022-08-24T18:55:27.046Z,14.60
2022-08-24T18:57:55.101Z,14.60
2022-08-24T19:00:23.062Z,14.80
2022-08-24T19:02:50.949Z,11.80
2022-08-24T19:05:22.727Z,12.20
2022-08-24T19:07:53.449Z,9.40
2022-08-24T19:10:22.841Z,13.00
2022-08-24T19:13:00.034Z,10.00
2022-08-24T19:15:32.027Z,10.40
2022-08-24T19:18:09.797Z,14.80
2022-08-24T19:20:39.298Z,13.00
2022-08-24T19:23:10.040Z,11.60
2022-08-24T19:25:39.730Z,13.00
2022-08-24T19:28:08.821Z,12.20
2022-08-24T19:30:36.763Z,11.20
2022-08-24T19:33:08.159Z,11.60
2022-08-24T19:35:38.696Z,13.50
2022-08-24T19:38:08.196Z,9.40
2022-08-24T19:40:39.017Z,9.80
2022-08-24T19:43:08.490Z,11.40
2022-08-24T19:45:54.820Z,10.00
2022-08-24T19:48:24.592Z,9.40
2022-08-24T19:50:53.294Z,11.20
2022-08-24T19:53:22.774Z,12.50
2022-08-24T19:55:50.765Z,12.00
2022-08-24T19:58:23.630Z,15.25
2022-08-24T20:00:57.103Z,13.25
2022-08-24T20:03:28.115Z,10.00
2022-08-24T20:05:56.047Z,10.00
2022-08-24T20:08:25.400Z,17.75
2022-08-24T20:10:58.772Z,19.25
2022-08-24T20:13:26.674Z,21.00
2022-08-24T20:15:58.564Z,14.75
2022-08-24T20:18:30.084Z,12.50
2022-08-24T20:20:58.137Z,13.25
2022-08-24T20:23:29.495Z,12.00
2022-08-24T20:25:57.749Z,12.50
2022-08-24T20:28:29.048Z,9.50
2022-08-24T20:31:00.112Z,10.25
2022-08-24T20:33:28.740Z,13.00
2022-08-24T20:35:56.851Z,12.00
2022-08-24T20:38:25.314Z,12.00
2022-08-24T20:40:58.968Z,11.25
2022-08-24T20:43:27.009Z,12.50
2022-08-24T20:45:55.553Z,11.50
2022-08-24T20:48:27.232Z,12.00
2022-08-24T20:50:55.443Z,12.00
2022-08-24T20:53:24.773Z,10.75
2022-08-24T20:55:52.746Z,10.50
2022-08-24T20:58:22.701Z,12.50
2022-08-24T21:00:50.747Z,11.50
2022-08-24T21:03:19.270Z,12.00
2022-08-24T21:05:47.294Z,12.75
2022-08-24T21:08:15.290Z,11.75
2022-08-24T21:10:43.520Z,14.50
2022-08-24T21:13:11.752Z,11.75
2022-08-24T21:15:41.511Z,10.00
2022-08-24T21:18:10.861Z,9.25
2022-08-24T21:20:54.711Z,12.00
2022-08-24T21:23:29.671Z,12.00
2022-08-24T21:25:57.567Z,11.50
2022-08-24T21:28:26.106Z,12.75
2022-08-24T21:30:55.449Z,10.75
2022-08-24T21:33:46.341Z,10.00
2022-08-24T21:36:15.525Z,13.00
2022-08-24T21:38:45.424Z,10.00
2022-08-24T21:41:14.362Z,14.00
2022-08-24T21:43:42.332Z,12.00
2022-08-24T21:46:11.632Z,13.25
2022-08-24T21:48:40.314Z,12.00
2022-08-24T21:51:08.996Z,11.00
2022-08-24T21:53:37.770Z,11.00
2022-08-24T21:56:06.089Z,7.75
2022-08-24T21:58:34.067Z,9.50
2022-08-24T22:01:03.340Z,9.50
2022-08-24T22:03:39.866Z,13.00
2022-08-24T22:06:08.890Z,11.00
2022-08-24T22:08:37.460Z,11.50
2022-08-24T22:11:05.436Z,11.00
2022-08-24T22:13:34.224Z,10.75
2022-08-24T22:16:03.208Z,10.50
2022-08-24T22:18:32.705Z,13.00
2022-08-24T22:21:01.306Z,10.25
2022-08-24T22:23:29.347Z,14.50
2022-08-24T22:25:57.241Z,9.50
2022-08-24T22:28:25.620Z,11.25
2022-08-24T22:30:53.638Z,10.25
2022-08-24T22:33:22.111Z,9.50
2022-08-24T22:35:51.877Z,9.50
2022-08-24T22:38:20.099Z,11.25
2022-08-24T22:40:48.099Z,10.50
2022-08-24T22:43:16.375Z,10.75
2022-08-24T22:45:44.344Z,6.00
2022-08-24T22:48:12.477Z,9.00
2022-08-24T22:50:43.824Z,8.25
2022-08-24T22:53:13.371Z,8.50
2022-08-24T22:55:41.381Z,10.00
2022-08-24T22:58:09.259Z,7.75
2022-08-24T23:00:39.933Z,10.00
2022-08-24T23:03:07.827Z,12.25
2022-08-24T23:05:35.740Z,11.00
2022-08-24T23:08:05.591Z,10.75
2022-08-24T23:10:40.765Z,12.25
2022-08-24T23:13:09.505Z,9.25
2022-08-24T23:15:37.791Z,8.50
2022-08-24T23:18:26.896Z,10.75
2022-08-24T23:20:54.223Z,9.75
2022-08-24T23:23:22.188Z,9.75
2022-08-24T23:25:51.468Z,9.50
2022-08-24T23:28:19.942Z,7.00
2022-08-24T23:30:47.902Z,11.00
2022-08-24T23:33:15.858Z,10.00
2022-08-24T23:35:44.059Z,7.00
2022-08-24T23:38:12.861Z,9.00
2022-08-24T23:40:42.294Z,11.75
2022-08-24T23:43:12.456Z,10.00
2022-08-24T23:45:40.625Z,10.25
2022-08-24T23:48:08.881Z,8.75
2022-08-24T23:50:36.786Z,7.00
2022-08-24T23:53:04.704Z,8.50
2022-08-24T23:55:32.608Z,9.50
2022-08-24T23:58:01.028Z,8.50
